sensor_id;sensor_type;location;lat;lon;timestamp;P1;durP1;ratioP1;P2;durP2;ratioP2
76854;SDS011;66343;44.588;33.450;2023-05-07T00:01:29;8.85;;;2.15;;
76854;SDS011;66343;44.588;33.450;2023-05-07T00:04:01;7.10;;;2.00;;
76854;SDS011;66343;44.588;33.450;2023-05-07T00:09:03;7.35;;;1.80;;
76854;SDS011;66343;44.588;33.450;2023-05-07T00:11:35;6.78;;;1.92;;
76854;SDS011;66343;44.588;33.450;2023-05-07T00:14:07;8.10;;;2.15;;
76854;SDS011;66343;44.588;33.450;2023-05-07T00:16:39;8.00;;;2.00;;
76854;SDS011;66343;44.588;33.450;2023-05-07T00:19:08;6.75;;;1.92;;
76854;SDS011;66343;44.588;33.450;2023-05-07T00:21:38;8.25;;;2.05;;
76854;SDS011;66343;44.588;33.450;2023-05-07T00:24:07;8.38;;;1.90;;
76854;SDS011;66343;44.588;33.450;2023-05-07T00:26:39;8.30;;;2.00;;
76854;SDS011;66343;44.588;33.450;2023-05-07T00:29:11;9.02;;;2.10;;
76854;SDS011;66343;44.588;33.450;2023-05-07T00:31:43;10.23;;;2.40;;
76854;SDS011;66343;44.588;33.450;2023-05-07T00:34:15;9.57;;;2.22;;
76854;SDS011;66343;44.588;33.450;2023-05-07T00:36:49;7.57;;;2.33;;
76854;SDS011;66343;44.588;33.450;2023-05-07T00:39:20;8.55;;;2.10;;
76854;SDS011;66343;44.588;33.450;2023-05-07T00:41:54;8.50;;;1.80;;
76854;SDS011;66343;44.588;33.450;2023-05-07T00:44:24;5.78;;;1.92;;
76854;SDS011;66343;44.588;33.450;2023-05-07T00:46:56;11.77;;;2.55;;
76854;SDS011;66343;44.588;33.450;2023-05-07T00:49:28;7.03;;;2.33;;
76854;SDS011;66343;44.588;33.450;2023-05-07T00:52:14;6.60;;;1.73;;
76854;SDS011;66343;44.588;33.450;2023-05-07T00:54:47;7.53;;;2.15;;
76854;SDS011;66343;44.588;33.450;2023-05-07T00:57:18;9.15;;;2.28;;
76854;SDS011;66343;44.588;33.450;2023-05-07T00:59:50;8.70;;;2.53;;
76854;SDS011;66343;44.588;33.450;2023-05-07T01:02:23;8.57;;;2.17;;
76854;SDS011;66343;44.588;33.450;2023-05-07T01:04:55;9.73;;;2.53;;
76854;SDS011;66343;44.588;33.450;2023-05-07T01:07:25;9.27;;;3.20;;
76854;SDS011;66343;44.588;33.450;2023-05-07T01:09:56;7.57;;;1.90;;
76854;SDS011;66343;44.588;33.450;2023-05-07T01:12:29;7.72;;;2.33;;
76854;SDS011;66343;44.588;33.450;2023-05-07T01:14:59;7.72;;;2.67;;
76854;SDS011;66343;44.588;33.450;2023-05-07T01:17:33;9.30;;;2.40;;
76854;SDS011;66343;44.588;33.450;2023-05-07T01:20:10;7.03;;;2.22;;
76854;SDS011;66343;44.588;33.450;2023-05-07T01:22:45;9.18;;;2.95;;
76854;SDS011;66343;44.588;33.450;2023-05-07T01:25:15;6.97;;;2.25;;
76854;SDS011;66343;44.588;33.450;2023-05-07T01:27:51;7.47;;;2.40;;
76854;SDS011;66343;44.588;33.450;2023-05-07T01:30:25;8.65;;;2.55;;
76854;SDS011;66343;44.588;33.450;2023-05-07T01:33:09;9.40;;;2.63;;
76854;SDS011;66343;44.588;33.450;2023-05-07T01:35:43;8.02;;;2.13;;
76854;SDS011;66343;44.588;33.450;2023-05-07T01:38:16;7.82;;;2.67;;
76854;SDS011;66343;44.588;33.450;2023-05-07T01:40:47;10.85;;;2.97;;
76854;SDS011;66343;44.588;33.450;2023-05-07T01:43:22;10.98;;;2.67;;
76854;SDS011;66343;44.588;33.450;2023-05-07T01:45:57;9.20;;;2.70;;
76854;SDS011;66343;44.588;33.450;2023-05-07T01:48:31;8.88;;;2.70;;
76854;SDS011;66343;44.588;33.450;2023-05-07T01:51:06;9.82;;;3.10;;
76854;SDS011;66343;44.588;33.450;2023-05-07T01:53:40;7.68;;;2.45;;
76854;SDS011;66343;44.588;33.450;2023-05-07T01:56:16;7.70;;;2.45;;
76854;SDS011;66343;44.588;33.450;2023-05-07T01:58:46;10.02;;;3.20;;
76854;SDS011;66343;44.588;33.450;2023-05-07T02:01:19;6.40;;;2.10;;
76854;SDS011;66343;44.588;33.450;2023-05-07T02:03:49;11.18;;;2.95;;
76854;SDS011;66343;44.588;33.450;2023-05-07T02:06:24;9.73;;;2.15;;
76854;SDS011;66343;44.588;33.450;2023-05-07T02:09:00;6.90;;;2.40;;
76854;SDS011;66343;44.588;33.450;2023-05-07T02:11:33;5.72;;;2.03;;
76854;SDS011;66343;44.588;33.450;2023-05-07T02:14:05;9.80;;;2.97;;
76854;SDS011;66343;44.588;33.450;2023-05-07T02:16:35;7.50;;;2.25;;
76854;SDS011;66343;44.588;33.450;2023-05-07T02:19:04;9.95;;;2.40;;
76854;SDS011;66343;44.588;33.450;2023-05-07T02:21:34;9.13;;;2.53;;
76854;SDS011;66343;44.588;33.450;2023-05-07T02:24:04;9.88;;;2.60;;
76854;SDS011;66343;44.588;33.450;2023-05-07T02:26:38;9.18;;;2.50;;
76854;SDS011;66343;44.588;33.450;2023-05-07T02:29:12;8.20;;;3.10;;
76854;SDS011;66343;44.588;33.450;2023-05-07T02:31:43;7.75;;;2.45;;
76854;SDS011;66343;44.588;33.450;2023-05-07T02:34:16;8.75;;;2.55;;
76854;SDS011;66343;44.588;33.450;2023-05-07T02:36:46;9.23;;;2.60;;
76854;SDS011;66343;44.588;33.450;2023-05-07T02:39:19;9.05;;;2.67;;
76854;SDS011;66343;44.588;33.450;2023-05-07T02:41:51;9.68;;;2.75;;
76854;SDS011;66343;44.588;33.450;2023-05-07T02:44:23;8.95;;;2.50;;
76854;SDS011;66343;44.588;33.450;2023-05-07T02:46:56;7.85;;;2.15;;
76854;SDS011;66343;44.588;33.450;2023-05-07T02:49:26;8.05;;;2.40;;
76854;SDS011;66343;44.588;33.450;2023-05-07T02:51:58;7.65;;;2.58;;
76854;SDS011;66343;44.588;33.450;2023-05-07T02:54:28;9.95;;;2.90;;
76854;SDS011;66343;44.588;33.450;2023-05-07T02:56:58;12.15;;;2.95;;
76854;SDS011;66343;44.588;33.450;2023-05-07T02:59:30;7.90;;;2.78;;
76854;SDS011;66343;44.588;33.450;2023-05-07T03:02:00;8.15;;;2.50;;
76854;SDS011;66343;44.588;33.450;2023-05-07T03:04:35;9.90;;;2.83;;
76854;SDS011;66343;44.588;33.450;2023-05-07T03:07:09;9.95;;;2.83;;
76854;SDS011;66343;44.588;33.450;2023-05-07T03:09:38;10.10;;;2.80;;
76854;SDS011;66343;44.588;33.450;2023-05-07T03:12:10;9.93;;;2.88;;
76854;SDS011;66343;44.588;33.450;2023-05-07T03:14:42;11.35;;;3.10;;
76854;SDS011;66343;44.588;33.450;2023-05-07T03:17:16;6.90;;;2.88;;
76854;SDS011;66343;44.588;33.450;2023-05-07T03:19:48;11.65;;;3.38;;
76854;SDS011;66343;44.588;33.450;2023-05-07T03:22:18;9.13;;;2.90;;
76854;SDS011;66343;44.588;33.450;2023-05-07T03:24:51;10.45;;;2.75;;
76854;SDS011;66343;44.588;33.450;2023-05-07T03:27:26;9.52;;;3.15;;
76854;SDS011;66343;44.588;33.450;2023-05-07T03:29:55;9.20;;;3.20;;
76854;SDS011;66343;44.588;33.450;2023-05-07T03:32:25;9.57;;;2.92;;
76854;SDS011;66343;44.588;33.450;2023-05-07T03:34:59;11.00;;;3.22;;
76854;SDS011;66343;44.588;33.450;2023-05-07T03:37:29;10.15;;;3.13;;
76854;SDS011;66343;44.588;33.450;2023-05-07T03:39:59;10.52;;;3.20;;
76854;SDS011;66343;44.588;33.450;2023-05-07T03:42:31;8.52;;;2.85;;
76854;SDS011;66343;44.588;33.450;2023-05-07T03:45:01;9.02;;;2.78;;
76854;SDS011;66343;44.588;33.450;2023-05-07T03:47:31;10.75;;;2.53;;
76854;SDS011;66343;44.588;33.450;2023-05-07T03:50:01;9.00;;;2.80;;
76854;SDS011;66343;44.588;33.450;2023-05-07T03:52:34;9.75;;;3.03;;
76854;SDS011;66343;44.588;33.450;2023-05-07T03:55:08;10.35;;;3.00;;
76854;SDS011;66343;44.588;33.450;2023-05-07T03:57:41;8.15;;;2.58;;
76854;SDS011;66343;44.588;33.450;2023-05-07T04:00:14;7.35;;;2.58;;
76854;SDS011;66343;44.588;33.450;2023-05-07T04:02:49;9.60;;;2.60;;
76854;SDS011;66343;44.588;33.450;2023-05-07T04:05:30;9.88;;;2.72;;
76854;SDS011;66343;44.588;33.450;2023-05-07T04:08:07;8.50;;;3.05;;
76854;SDS011;66343;44.588;33.450;2023-05-07T04:10:44;8.40;;;2.72;;
76854;SDS011;66343;44.588;33.450;2023-05-07T04:13:14;13.45;;;2.80;;
76854;SDS011;66343;44.588;33.450;2023-05-07T04:15:45;9.93;;;3.03;;
76854;SDS011;66343;44.588;33.450;2023-05-07T04:18:24;10.05;;;3.28;;
76854;SDS011;66343;44.588;33.450;2023-05-07T04:20:53;6.80;;;2.60;;
76854;SDS011;66343;44.588;33.450;2023-05-07T04:23:26;9.45;;;2.85;;
76854;SDS011;66343;44.588;33.450;2023-05-07T04:25:57;9.60;;;2.60;;
76854;SDS011;66343;44.588;33.450;2023-05-07T04:28:39;6.82;;;2.65;;
76854;SDS011;66343;44.588;33.450;2023-05-07T04:31:09;11.95;;;2.60;;
76854;SDS011;66343;44.588;33.450;2023-05-07T04:33:49;14.10;;;2.70;;
76854;SDS011;66343;44.588;33.450;2023-05-07T04:36:28;10.95;;;2.67;;
76854;SDS011;66343;44.588;33.450;2023-05-07T04:39:04;8.77;;;2.63;;
76854;SDS011;66343;44.588;33.450;2023-05-07T04:41:39;11.45;;;3.13;;
76854;SDS011;66343;44.588;33.450;2023-05-07T04:44:10;7.97;;;2.63;;
76854;SDS011;66343;44.588;33.450;2023-05-07T04:46:43;10.40;;;2.33;;
76854;SDS011;66343;44.588;33.450;2023-05-07T04:49:15;9.98;;;2.83;;
76854;SDS011;66343;44.588;33.450;2023-05-07T04:51:47;8.48;;;2.63;;
76854;SDS011;66343;44.588;33.450;2023-05-07T04:54:21;10.27;;;2.67;;
76854;SDS011;66343;44.588;33.450;2023-05-07T04:56:53;9.23;;;2.83;;
76854;SDS011;66343;44.588;33.450;2023-05-07T04:59:27;9.70;;;3.42;;
76854;SDS011;66343;44.588;33.450;2023-05-07T05:02:04;10.15;;;2.85;;
76854;SDS011;66343;44.588;33.450;2023-05-07T05:04:36;11.25;;;2.50;;
76854;SDS011;66343;44.588;33.450;2023-05-07T05:07:14;10.90;;;3.08;;
76854;SDS011;66343;44.588;33.450;2023-05-07T05:09:47;10.43;;;2.80;;
76854;SDS011;66343;44.588;33.450;2023-05-07T05:12:20;9.43;;;3.03;;
76854;SDS011;66343;44.588;33.450;2023-05-07T05:14:54;10.57;;;2.92;;
76854;SDS011;66343;44.588;33.450;2023-05-07T05:17:26;9.38;;;2.72;;
76854;SDS011;66343;44.588;33.450;2023-05-07T05:19:58;10.25;;;3.17;;
76854;SDS011;66343;44.588;33.450;2023-05-07T05:22:33;9.23;;;3.08;;
76854;SDS011;66343;44.588;33.450;2023-05-07T05:25:05;10.90;;;3.20;;
76854;SDS011;66343;44.588;33.450;2023-05-07T05:27:40;11.43;;;2.97;;
76854;SDS011;66343;44.588;33.450;2023-05-07T05:30:13;10.10;;;3.17;;
76854;SDS011;66343;44.588;33.450;2023-05-07T05:32:49;9.88;;;3.40;;
76854;SDS011;66343;44.588;33.450;2023-05-07T05:35:21;11.13;;;3.58;;
76854;SDS011;66343;44.588;33.450;2023-05-07T05:37:55;10.02;;;3.83;;
76854;SDS011;66343;44.588;33.450;2023-05-07T05:40:28;9.10;;;3.53;;
76854;SDS011;66343;44.588;33.450;2023-05-07T05:42:59;9.43;;;3.33;;
76854;SDS011;66343;44.588;33.450;2023-05-07T05:45:31;8.48;;;3.20;;
76854;SDS011;66343;44.588;33.450;2023-05-07T05:48:01;10.73;;;3.17;;
76854;SDS011;66343;44.588;33.450;2023-05-07T05:50:34;6.57;;;2.80;;
76854;SDS011;66343;44.588;33.450;2023-05-07T05:53:11;8.50;;;3.00;;
76854;SDS011;66343;44.588;33.450;2023-05-07T05:55:41;9.43;;;3.80;;
76854;SDS011;66343;44.588;33.450;2023-05-07T05:58:18;10.10;;;3.05;;
76854;SDS011;66343;44.588;33.450;2023-05-07T06:00:56;10.27;;;3.03;;
76854;SDS011;66343;44.588;33.450;2023-05-07T06:03:28;10.23;;;3.38;;
76854;SDS011;66343;44.588;33.450;2023-05-07T06:06:01;8.65;;;3.15;;
76854;SDS011;66343;44.588;33.450;2023-05-07T06:08:31;9.75;;;3.20;;
76854;SDS011;66343;44.588;33.450;2023-05-07T06:11:06;11.60;;;3.45;;
76854;SDS011;66343;44.588;33.450;2023-05-07T06:13:42;9.68;;;3.28;;
76854;SDS011;66343;44.588;33.450;2023-05-07T06:16:14;10.38;;;3.47;;
76854;SDS011;66343;44.588;33.450;2023-05-07T06:18:47;11.15;;;3.35;;
76854;SDS011;66343;44.588;33.450;2023-05-07T06:21:17;11.30;;;3.63;;
76854;SDS011;66343;44.588;33.450;2023-05-07T06:23:54;11.30;;;3.40;;
76854;SDS011;66343;44.588;33.450;2023-05-07T06:26:29;13.18;;;3.78;;
76854;SDS011;66343;44.588;33.450;2023-05-07T06:29:02;11.20;;;3.50;;
76854;SDS011;66343;44.588;33.450;2023-05-07T06:31:33;11.00;;;4.30;;
76854;SDS011;66343;44.588;33.450;2023-05-07T06:34:08;17.35;;;5.10;;
76854;SDS011;66343;44.588;33.450;2023-05-07T06:36:45;21.17;;;5.43;;
76854;SDS011;66343;44.588;33.450;2023-05-07T06:39:33;14.40;;;5.07;;
76854;SDS011;66343;44.588;33.450;2023-05-07T06:42:03;12.00;;;5.57;;
76854;SDS011;66343;44.588;33.450;2023-05-07T06:44:42;16.27;;;6.00;;
76854;SDS011;66343;44.588;33.450;2023-05-07T06:47:16;14.25;;;5.70;;
76854;SDS011;66343;44.588;33.450;2023-05-07T06:49:50;15.13;;;5.63;;
76854;SDS011;66343;44.588;33.450;2023-05-07T06:52:23;13.73;;;5.50;;
76854;SDS011;66343;44.588;33.450;2023-05-07T06:54:56;15.88;;;5.82;;
76854;SDS011;66343;44.588;33.450;2023-05-07T06:57:28;17.48;;;5.45;;
76854;SDS011;66343;44.588;33.450;2023-05-07T06:59:59;9.57;;;5.07;;
76854;SDS011;66343;44.588;33.450;2023-05-07T07:02:49;14.80;;;5.55;;
76854;SDS011;66343;44.588;33.450;2023-05-07T07:05:27;14.45;;;4.88;;
76854;SDS011;66343;44.588;33.450;2023-05-07T07:08:00;15.70;;;5.30;;
76854;SDS011;66343;44.588;33.450;2023-05-07T07:10:30;15.95;;;5.18;;
76854;SDS011;66343;44.588;33.450;2023-05-07T07:13:01;10.95;;;4.68;;
76854;SDS011;66343;44.588;33.450;2023-05-07T07:15:31;12.65;;;4.60;;
76854;SDS011;66343;44.588;33.450;2023-05-07T07:18:03;11.82;;;4.40;;
76854;SDS011;66343;44.588;33.450;2023-05-07T07:20:39;13.50;;;4.63;;
76854;SDS011;66343;44.588;33.450;2023-05-07T07:23:15;11.82;;;4.72;;
76854;SDS011;66343;44.588;33.450;2023-05-07T07:25:47;14.82;;;4.65;;
76854;SDS011;66343;44.588;33.450;2023-05-07T07:28:23;12.70;;;4.65;;
76854;SDS011;66343;44.588;33.450;2023-05-07T07:30:54;12.65;;;4.80;;
76854;SDS011;66343;44.588;33.450;2023-05-07T07:33:32;12.43;;;4.30;;
76854;SDS011;66343;44.588;33.450;2023-05-07T07:36:01;12.30;;;4.65;;
76854;SDS011;66343;44.588;33.450;2023-05-07T07:38:37;11.38;;;4.07;;
76854;SDS011;66343;44.588;33.450;2023-05-07T07:41:10;10.95;;;3.88;;
76854;SDS011;66343;44.588;33.450;2023-05-07T07:43:40;9.95;;;3.92;;
76854;SDS011;66343;44.588;33.450;2023-05-07T07:46:15;12.75;;;3.90;;
76854;SDS011;66343;44.588;33.450;2023-05-07T07:48:45;14.52;;;4.22;;
76854;SDS011;66343;44.588;33.450;2023-05-07T07:51:20;14.02;;;3.72;;
76854;SDS011;66343;44.588;33.450;2023-05-07T07:53:53;12.10;;;3.78;;
76854;SDS011;66343;44.588;33.450;2023-05-07T07:56:28;14.07;;;3.97;;
76854;SDS011;66343;44.588;33.450;2023-05-07T07:59:03;11.63;;;3.30;;
76854;SDS011;66343;44.588;33.450;2023-05-07T08:01:37;12.15;;;3.40;;
76854;SDS011;66343;44.588;33.450;2023-05-07T08:04:07;12.00;;;3.17;;
76854;SDS011;66343;44.588;33.450;2023-05-07T08:06:41;12.13;;;3.45;;
76854;SDS011;66343;44.588;33.450;2023-05-07T08:09:14;11.98;;;3.72;;
76854;SDS011;66343;44.588;33.450;2023-05-07T08:11:45;11.48;;;3.75;;
76854;SDS011;66343;44.588;33.450;2023-05-07T08:14:20;12.90;;;3.50;;
76854;SDS011;66343;44.588;33.450;2023-05-07T08:16:49;8.80;;;3.05;;
76854;SDS011;66343;44.588;33.450;2023-05-07T08:19:22;10.50;;;2.65;;
76854;SDS011;66343;44.588;33.450;2023-05-07T08:21:55;11.15;;;2.80;;
76854;SDS011;66343;44.588;33.450;2023-05-07T08:24:30;10.35;;;2.55;;
76854;SDS011;66343;44.588;33.450;2023-05-07T08:27:02;9.93;;;3.08;;
76854;SDS011;66343;44.588;33.450;2023-05-07T08:29:38;10.95;;;2.88;;
76854;SDS011;66343;44.588;33.450;2023-05-07T08:32:13;8.43;;;3.20;;
76854;SDS011;66343;44.588;33.450;2023-05-07T08:34:50;8.85;;;2.97;;
76854;SDS011;66343;44.588;33.450;2023-05-07T08:37:20;7.68;;;2.88;;
76854;SDS011;66343;44.588;33.450;2023-05-07T08:39:53;9.85;;;3.30;;
76854;SDS011;66343;44.588;33.450;2023-05-07T08:42:26;10.40;;;3.42;;
76854;SDS011;66343;44.588;33.450;2023-05-07T08:45:06;11.10;;;3.45;;
76854;SDS011;66343;44.588;33.450;2023-05-07T08:47:43;12.27;;;4.45;;
76854;SDS011;66343;44.588;33.450;2023-05-07T08:50:18;12.18;;;4.82;;
76854;SDS011;66343;44.588;33.450;2023-05-07T08:52:53;11.55;;;4.40;;
76854;SDS011;66343;44.588;33.450;2023-05-07T08:55:25;11.88;;;5.18;;
76854;SDS011;66343;44.588;33.450;2023-05-07T08:57:58;12.73;;;5.43;;
76854;SDS011;66343;44.588;33.450;2023-05-07T09:00:31;10.43;;;5.25;;
76854;SDS011;66343;44.588;33.450;2023-05-07T09:03:04;13.43;;;5.47;;
76854;SDS011;66343;44.588;33.450;2023-05-07T09:05:40;12.63;;;5.60;;
76854;SDS011;66343;44.588;33.450;2023-05-07T09:08:18;13.35;;;5.53;;
76854;SDS011;66343;44.588;33.450;2023-05-07T09:10:59;10.52;;;5.18;;
76854;SDS011;66343;44.588;33.450;2023-05-07T09:13:36;14.40;;;5.18;;
76854;SDS011;66343;44.588;33.450;2023-05-07T09:16:14;13.75;;;5.68;;
76854;SDS011;66343;44.588;33.450;2023-05-07T09:18:48;12.98;;;5.53;;
76854;SDS011;66343;44.588;33.450;2023-05-07T09:21:21;9.68;;;4.80;;
76854;SDS011;66343;44.588;33.450;2023-05-07T09:23:55;9.38;;;4.35;;
76854;SDS011;66343;44.588;33.450;2023-05-07T09:26:35;10.40;;;4.75;;
76854;SDS011;66343;44.588;33.450;2023-05-07T09:29:10;9.93;;;4.35;;
76854;SDS011;66343;44.588;33.450;2023-05-07T09:31:48;9.63;;;3.75;;
76854;SDS011;66343;44.588;33.450;2023-05-07T09:34:19;10.02;;;4.00;;
76854;SDS011;66343;44.588;33.450;2023-05-07T09:36:53;10.38;;;3.85;;
76854;SDS011;66343;44.588;33.450;2023-05-07T09:39:23;12.00;;;3.80;;
76854;SDS011;66343;44.588;33.450;2023-05-07T09:41:53;8.45;;;3.55;;
76854;SDS011;66343;44.588;33.450;2023-05-07T09:44:33;10.30;;;3.40;;
76854;SDS011;66343;44.588;33.450;2023-05-07T09:47:09;8.32;;;3.25;;
76854;SDS011;66343;44.588;33.450;2023-05-07T09:49:47;14.40;;;4.07;;
76854;SDS011;66343;44.588;33.450;2023-05-07T09:52:27;14.75;;;3.75;;
76854;SDS011;66343;44.588;33.450;2023-05-07T09:55:08;17.75;;;3.60;;
76854;SDS011;66343;44.588;33.450;2023-05-07T09:57:44;11.77;;;3.80;;
76854;SDS011;66343;44.588;33.450;2023-05-07T10:00:17;14.60;;;4.05;;
76854;SDS011;66343;44.588;33.450;2023-05-07T10:02:49;11.32;;;3.17;;
76854;SDS011;66343;44.588;33.450;2023-05-07T10:05:36;10.95;;;3.67;;
76854;SDS011;66343;44.588;33.450;2023-05-07T10:08:09;14.82;;;4.60;;
76854;SDS011;66343;44.588;33.450;2023-05-07T10:13:21;11.95;;;3.78;;
76854;SDS011;66343;44.588;33.450;2023-05-07T10:15:58;13.07;;;3.65;;
76854;SDS011;66343;44.588;33.450;2023-05-07T10:18:36;10.38;;;3.28;;
76854;SDS011;66343;44.588;33.450;2023-05-07T10:21:16;9.75;;;3.20;;
76854;SDS011;66343;44.588;33.450;2023-05-07T10:23:51;11.20;;;3.40;;
76854;SDS011;66343;44.588;33.450;2023-05-07T10:26:29;8.85;;;3.42;;
76854;SDS011;66343;44.588;33.450;2023-05-07T10:29:07;9.25;;;2.83;;
76854;SDS011;66343;44.588;33.450;2023-05-07T10:34:47;10.27;;;3.45;;
76854;SDS011;66343;44.588;33.450;2023-05-07T10:37:23;12.25;;;4.15;;
76854;SDS011;66343;44.588;33.450;2023-05-07T10:40:00;13.15;;;3.83;;
76854;SDS011;66343;44.588;33.450;2023-05-07T10:42:33;8.90;;;3.35;;
76854;SDS011;66343;44.588;33.450;2023-05-07T10:45:14;12.23;;;4.25;;
76854;SDS011;66343;44.588;33.450;2023-05-07T10:51:21;9.50;;;3.33;;
76854;SDS011;66343;44.588;33.450;2023-05-07T10:56:47;11.63;;;3.60;;
76854;SDS011;66343;44.588;33.450;2023-05-07T10:59:33;11.93;;;3.28;;
76854;SDS011;66343;44.588;33.450;2023-05-07T11:06:14;9.20;;;3.28;;
76854;SDS011;66343;44.588;33.450;2023-05-07T11:08:53;10.32;;;3.50;;
76854;SDS011;66343;44.588;33.450;2023-05-07T11:11:50;10.98;;;3.17;;
76854;SDS011;66343;44.588;33.450;2023-05-07T11:14:44;11.82;;;3.28;;
76854;SDS011;66343;44.588;33.450;2023-05-07T11:17:28;12.27;;;3.25;;
76854;SDS011;66343;44.588;33.450;2023-05-07T11:20:10;11.63;;;3.42;;
76854;SDS011;66343;44.588;33.450;2023-05-07T11:22:55;9.50;;;3.33;;
76854;SDS011;66343;44.588;33.450;2023-05-07T11:25:37;9.75;;;3.15;;
76854;SDS011;66343;44.588;33.450;2023-05-07T11:28:24;13.95;;;3.22;;
76854;SDS011;66343;44.588;33.450;2023-05-07T11:31:08;8.68;;;2.92;;
76854;SDS011;66343;44.588;33.450;2023-05-07T11:33:40;9.93;;;3.38;;
76854;SDS011;66343;44.588;33.450;2023-05-07T11:36:17;9.93;;;3.10;;
76854;SDS011;66343;44.588;33.450;2023-05-07T11:38:53;8.10;;;2.63;;
76854;SDS011;66343;44.588;33.450;2023-05-07T11:41:23;9.30;;;2.88;;
76854;SDS011;66343;44.588;33.450;2023-05-07T11:44:05;9.45;;;2.92;;
76854;SDS011;66343;44.588;33.450;2023-05-07T11:46:42;11.18;;;3.40;;
76854;SDS011;66343;44.588;33.450;2023-05-07T11:49:17;10.07;;;3.15;;
76854;SDS011;66343;44.588;33.450;2023-05-07T11:51:52;10.82;;;3.50;;
76854;SDS011;66343;44.588;33.450;2023-05-07T11:54:22;9.88;;;2.60;;
76854;SDS011;66343;44.588;33.450;2023-05-07T11:56:52;10.48;;;2.42;;
76854;SDS011;66343;44.588;33.450;2023-05-07T11:59:28;10.20;;;3.00;;
76854;SDS011;66343;44.588;33.450;2023-05-07T12:02:09;10.52;;;2.60;;
76854;SDS011;66343;44.588;33.450;2023-05-07T12:04:44;8.23;;;2.40;;
76854;SDS011;66343;44.588;33.450;2023-05-07T12:07:24;10.88;;;2.72;;
76854;SDS011;66343;44.588;33.450;2023-05-07T12:09:58;9.57;;;2.80;;
76854;SDS011;66343;44.588;33.450;2023-05-07T12:12:39;10.60;;;2.53;;
76854;SDS011;66343;44.588;33.450;2023-05-07T12:15:32;9.70;;;2.50;;
76854;SDS011;66343;44.588;33.450;2023-05-07T12:18:09;7.95;;;2.17;;
76854;SDS011;66343;44.588;33.450;2023-05-07T12:20:45;5.60;;;2.00;;
76854;SDS011;66343;44.588;33.450;2023-05-07T12:23:15;10.80;;;2.30;;
76854;SDS011;66343;44.588;33.450;2023-05-07T12:25:51;8.25;;;2.30;;
76854;SDS011;66343;44.588;33.450;2023-05-07T12:28:32;9.77;;;2.85;;
76854;SDS011;66343;44.588;33.450;2023-05-07T12:31:10;8.32;;;2.10;;
76854;SDS011;66343;44.588;33.450;2023-05-07T12:33:48;6.28;;;1.80;;
76854;SDS011;66343;44.588;33.450;2023-05-07T12:36:19;8.50;;;2.17;;
76854;SDS011;66343;44.588;33.450;2023-05-07T12:38:52;7.28;;;2.08;;
76854;SDS011;66343;44.588;33.450;2023-05-07T12:41:26;10.10;;;2.35;;
76854;SDS011;66343;44.588;33.450;2023-05-07T12:43:57;6.28;;;2.03;;
76854;SDS011;66343;44.588;33.450;2023-05-07T12:46:32;7.05;;;2.05;;
76854;SDS011;66343;44.588;33.450;2023-05-07T12:49:13;6.85;;;2.00;;
76854;SDS011;66343;44.588;33.450;2023-05-07T12:51:46;9.75;;;2.60;;
76854;SDS011;66343;44.588;33.450;2023-05-07T12:54:38;7.57;;;2.05;;
76854;SDS011;66343;44.588;33.450;2023-05-07T12:57:08;6.82;;;2.05;;
76854;SDS011;66343;44.588;33.450;2023-05-07T12:59:41;7.25;;;1.88;;
76854;SDS011;66343;44.588;33.450;2023-05-07T13:02:15;8.90;;;2.38;;
76854;SDS011;66343;44.588;33.450;2023-05-07T13:04:47;11.27;;;2.10;;
76854;SDS011;66343;44.588;33.450;2023-05-07T13:07:28;7.05;;;1.95;;
76854;SDS011;66343;44.588;33.450;2023-05-07T13:10:03;7.28;;;1.80;;
76854;SDS011;66343;44.588;33.450;2023-05-07T13:12:44;8.80;;;1.98;;
76854;SDS011;66343;44.588;33.450;2023-05-07T13:15:14;8.48;;;1.77;;
76854;SDS011;66343;44.588;33.450;2023-05-07T13:17:45;8.73;;;2.22;;
76854;SDS011;66343;44.588;33.450;2023-05-07T13:20:21;8.68;;;2.03;;
76854;SDS011;66343;44.588;33.450;2023-05-07T13:22:52;11.20;;;2.47;;
76854;SDS011;66343;44.588;33.450;2023-05-07T13:25:33;7.35;;;2.00;;
76854;SDS011;66343;44.588;33.450;2023-05-07T13:28:12;6.95;;;2.03;;
76854;SDS011;66343;44.588;33.450;2023-05-07T13:30:44;7.03;;;1.67;;
76854;SDS011;66343;44.588;33.450;2023-05-07T13:33:20;7.60;;;2.05;;
76854;SDS011;66343;44.588;33.450;2023-05-07T13:36:00;7.40;;;1.52;;
76854;SDS011;66343;44.588;33.450;2023-05-07T13:38:33;9.30;;;1.90;;
76854;SDS011;66343;44.588;33.450;2023-05-07T13:41:07;3.65;;;1.40;;
76854;SDS011;66343;44.588;33.450;2023-05-07T13:43:43;4.57;;;1.45;;
76854;SDS011;66343;44.588;33.450;2023-05-07T13:46:15;5.05;;;1.20;;
76854;SDS011;66343;44.588;33.450;2023-05-07T13:48:48;4.47;;;1.30;;
76854;SDS011;66343;44.588;33.450;2023-05-07T13:51:22;6.97;;;1.23;;
76854;SDS011;66343;44.588;33.450;2023-05-07T13:53:52;5.18;;;1.42;;
76854;SDS011;66343;44.588;33.450;2023-05-07T13:56:23;5.10;;;1.40;;
76854;SDS011;66343;44.588;33.450;2023-05-07T13:58:53;4.55;;;1.40;;
76854;SDS011;66343;44.588;33.450;2023-05-07T14:01:29;8.98;;;1.30;;
76854;SDS011;66343;44.588;33.450;2023-05-07T14:03:58;5.45;;;1.45;;
76854;SDS011;66343;44.588;33.450;2023-05-07T14:06:28;5.80;;;1.13;;
76854;SDS011;66343;44.588;33.450;2023-05-07T14:11:34;5.75;;;1.17;;
76854;SDS011;66343;44.588;33.450;2023-05-07T14:14:06;4.20;;;1.25;;
76854;SDS011;66343;44.588;33.450;2023-05-07T14:16:36;5.00;;;1.17;;
76854;SDS011;66343;44.588;33.450;2023-05-07T14:19:07;8.00;;;1.40;;
76854;SDS011;66343;44.588;33.450;2023-05-07T14:21:39;5.65;;;1.30;;
76854;SDS011;66343;44.588;33.450;2023-05-07T14:24:09;7.18;;;1.30;;
76854;SDS011;66343;44.588;33.450;2023-05-07T14:26:44;6.97;;;1.60;;
76854;SDS011;66343;44.588;33.450;2023-05-07T14:29:19;6.43;;;1.63;;
76854;SDS011;66343;44.588;33.450;2023-05-07T14:31:51;6.05;;;1.45;;
76854;SDS011;66343;44.588;33.450;2023-05-07T14:34:23;4.53;;;1.23;;
76854;SDS011;66343;44.588;33.450;2023-05-07T14:37:00;8.07;;;1.48;;
76854;SDS011;66343;44.588;33.450;2023-05-07T14:39:35;6.68;;;1.75;;
76854;SDS011;66343;44.588;33.450;2023-05-07T14:42:07;9.25;;;1.90;;
76854;SDS011;66343;44.588;33.450;2023-05-07T14:44:40;8.30;;;1.80;;
76854;SDS011;66343;44.588;33.450;2023-05-07T14:47:17;4.53;;;1.50;;
76854;SDS011;66343;44.588;33.450;2023-05-07T14:49:49;7.07;;;1.73;;
76854;SDS011;66343;44.588;33.450;2023-05-07T14:52:20;6.05;;;1.70;;
76854;SDS011;66343;44.588;33.450;2023-05-07T14:54:52;7.13;;;2.30;;
76854;SDS011;66343;44.588;33.450;2023-05-07T14:57:21;6.53;;;1.88;;
76854;SDS011;66343;44.588;33.450;2023-05-07T14:59:59;10.10;;;1.98;;
76854;SDS011;66343;44.588;33.450;2023-05-07T15:02:41;6.22;;;1.85;;
76854;SDS011;66343;44.588;33.450;2023-05-07T15:05:11;8.02;;;2.08;;
76854;SDS011;66343;44.588;33.450;2023-05-07T15:07:46;7.40;;;2.22;;
76854;SDS011;66343;44.588;33.450;2023-05-07T15:10:27;10.55;;;2.50;;
76854;SDS011;66343;44.588;33.450;2023-05-07T15:13:02;8.75;;;2.03;;
76854;SDS011;66343;44.588;33.450;2023-05-07T15:15:38;8.32;;;2.63;;
76854;SDS011;66343;44.588;33.450;2023-05-07T15:18:10;10.57;;;2.15;;
76854;SDS011;66343;44.588;33.450;2023-05-07T15:20:45;7.30;;;1.70;;
76854;SDS011;66343;44.588;33.450;2023-05-07T15:23:15;8.95;;;2.40;;
76854;SDS011;66343;44.588;33.450;2023-05-07T15:25:51;8.85;;;2.20;;
76854;SDS011;66343;44.588;33.450;2023-05-07T15:28:24;7.93;;;2.33;;
76854;SDS011;66343;44.588;33.450;2023-05-07T15:30:59;9.77;;;2.45;;